Time;durP1;ratioP1;P1;durP2;ratioP2;P2;SDS_P1;SDS_P2;PMS_P1;PMS_P2;Temp;Humidity;BMP_temperature;BMP_pressure;BME280_temperature;BME280_humidity;BME280_pressure;Samples;Min_cycle;Max_cycle;Signal;HPM_P1;HPM_P2
2023/01/14 00:01:28;;;;;;;254.98;147.30;;;3.50;1.00;;;;;;4952510;29;20042;-73
2023/01/14 00:03:56;;;;;;;250.18;147.23;;;3.60;99.90;;;;;;4953122;29;20053;-73
2023/01/14 00:06:25;;;;;;;251.73;152.65;;;3.50;99.90;;;;;;4953432;28;20043;-72
2023/01/14 00:08:56;;;;;;;298.23;173.80;;;3.50;99.90;;;;;;4953019;29;20050;-73
2023/01/14 00:11:45;;;;;;;319.60;185.63;;;3.50;1.00;;;;;;4952677;29;20041;-73
2023/01/14 00:14:14;;;;;;;301.00;179.23;;;3.50;99.90;;;;;;4952700;29;20039;-72
2023/01/14 00:16:43;;;;;;;270.10;160.15;;;3.50;1.00;;;;;;4952471;29;20043;-72
2023/01/14 00:19:12;;;;;;;310.52;181.13;;;3.50;99.90;;;;;;4952982;29;20158;-72
2023/01/14 00:21:41;;;;;;;316.50;190.30;;;3.50;1.00;;;;;;4951381;29;20046;-73
2023/01/14 00:24:09;;;;;;;322.00;187.93;;;3.60;99.90;;;;;;4935481;29;20574;-73
2023/01/14 00:26:37;;;;;;;307.77;169.70;;;3.50;99.90;;;;;;4951911;29;20042;-74
2023/01/14 00:29:05;;;;;;;296.70;165.63;;;3.60;99.90;;;;;;4952615;29;20043;-73
2023/01/14 00:31:33;;;;;;;294.98;163.77;;;3.60;1.00;;;;;;4934325;29;20114;-72
2023/01/14 00:34:02;;;;;;;283.75;160.50;;;3.60;1.00;;;;;;4952016;29;20137;-73
2023/01/14 00:36:29;;;;;;;249.35;141.57;;;3.70;99.90;;;;;;4951784;29;20125;-74
2023/01/14 00:38:57;;;;;;;239.63;137.70;;;3.70;99.90;;;;;;4942893;29;20070;-73
2023/01/14 00:41:26;;;;;;;268.35;149.05;;;3.80;1.00;;;;;;4926436;29;20054;-73
2023/01/14 00:43:55;;;;;;;260.77;144.88;;;3.80;99.90;;;;;;4951811;29;20297;-73
2023/01/14 00:46:25;;;;;;;250.05;139.05;;;3.80;99.90;;;;;;4941840;29;20070;-72
2023/01/14 00:48:52;;;;;;;284.00;162.20;;;3.80;1.00;;;;;;4951712;29;20499;-73
2023/01/14 00:51:22;;;;;;;271.88;156.85;;;3.80;99.90;;;;;;4951877;29;20054;-73
2023/01/14 00:53:49;;;;;;;280.60;158.80;;;3.80;99.90;;;;;;4952133;28;20439;-72
2023/01/14 00:56:18;;;;;;;302.65;172.40;;;3.80;99.90;;;;;;4925802;29;20047;-73
2023/01/14 00:58:46;;;;;;;324.75;189.13;;;3.80;99.90;;;;;;4952361;29;21027;-72
2023/01/14 01:01:14;;;;;;;311.80;178.38;;;3.80;1.00;;;;;;4950255;29;20050;-74
2023/01/14 01:03:43;;;;;;;267.23;153.05;;;3.80;91.60;;;;;;4952066;28;20043;-73
2023/01/14 01:06:12;;;;;;;254.40;146.82;;;3.80;99.90;;;;;;4941886;29;20047;-74
2023/01/14 01:08:41;;;;;;;240.13;137.85;;;3.80;99.90;;;;;;4951473;29;20502;-73
2023/01/14 01:11:10;;;;;;;242.70;134.93;;;3.90;99.90;;;;;;4951290;29;20051;-73
2023/01/14 01:13:38;;;;;;;247.48;138.02;;;3.80;1.00;;;;;;4934503;29;20055;-72
2023/01/14 01:16:07;;;;;;;248.95;146.00;;;3.90;99.90;;;;;;4926676;29;20434;-72
2023/01/14 01:18:35;;;;;;;265.70;152.75;;;3.80;99.90;;;;;;4951407;29;20043;-73
2023/01/14 01:21:05;;;;;;;258.48;146.82;;;3.90;1.00;;;;;;4926298;29;20134;-74
2023/01/14 01:23:33;;;;;;;262.98;148.25;;;3.80;99.90;;;;;;4934527;29;20043;-73
2023/01/14 01:26:03;;;;;;;254.98;143.00;;;3.70;99.90;;;;;;4927438;29;20086;-72
2023/01/14 01:28:31;;;;;;;262.73;149.38;;;3.70;1.00;;;;;;4933789;29;20538;-73
2023/01/14 01:31:02;;;;;;;261.67;153.57;;;3.60;99.90;;;;;;4933399;29;20043;-73
2023/01/14 01:33:30;;;;;;;279.20;163.68;;;3.60;1.00;;;;;;4951201;29;20039;-73
2023/01/14 01:36:02;;;;;;;268.90;154.50;;;3.60;1.00;;;;;;4951509;29;20558;-71
2023/01/14 01:38:30;;;;;;;268.60;158.07;;;3.60;96.50;;;;;;4951038;29;20074;-73
2023/01/14 01:40:59;;;;;;;231.80;135.57;;;3.70;1.00;;;;;;4951196;29;20127;-73
2023/01/14 01:43:29;;;;;;;257.47;143.50;;;3.70;1.00;;;;;;4951673;29;20126;-72
2023/01/14 01:45:57;;;;;;;272.48;156.57;;;3.70;1.00;;;;;;4943345;29;20058;-73
2023/01/14 01:48:29;;;;;;;267.30;155.18;;;3.70;1.00;;;;;;4956763;29;20082;-74
2023/01/14 01:51:02;;;;;;;264.20;149.30;;;3.60;1.00;;;;;;4950597;29;20058;-72
2023/01/14 01:53:30;;;;;;;255.38;145.80;;;3.60;99.90;;;;;;4950875;28;20051;-73
2023/01/14 01:55:58;;;;;;;244.52;139.90;;;3.70;99.90;;;;;;4933849;29;20051;-73
2023/01/14 01:58:29;;;;;;;236.90;135.40;;;3.70;1.00;;;;;;4932927;29;20055;-72
2023/01/14 02:00:56;;;;;;;204.77;121.00;;;3.70;91.00;;;;;;4950239;29;20035;-72
2023/01/14 02:03:29;;;;;;;222.75;126.30;;;3.70;99.90;;;;;;4951215;29;20095;-73
2023/01/14 02:05:56;;;;;;;222.90;129.57;;;3.70;99.90;;;;;;4952995;29;20118;-75
2023/01/14 02:08:25;;;;;;;205.07;119.85;;;3.70;99.90;;;;;;4943257;29;20039;-73
2023/01/14 02:11:07;;;;;;;187.38;108.50;;;3.80;1.00;;;;;;4952728;29;20039;-74
2023/01/14 02:13:45;;;;;;;157.60;96.20;;;3.80;1.00;;;;;;4933690;29;20055;-73
2023/01/14 02:16:21;;;;;;;156.65;97.68;;;3.80;99.90;;;;;;4951457;28;20039;-74
2023/01/14 02:19:11;;;;;;;149.07;88.95;;;3.80;99.90;;;;;;4937274;29;20107;-73
2023/01/14 02:21:45;;;;;;;157.02;95.70;;;3.90;1.00;;;;;;4942899;29;20066;-74
2023/01/14 02:24:41;;;;;;;158.85;95.25;;;3.90;1.00;;;;;;4937080;29;20062;-73
2023/01/14 02:27:42;;;;;;;149.45;90.88;;;3.90;99.90;;;;;;4954783;29;20050;-72
2023/01/14 02:30:31;;;;;;;131.48;79.53;;;4.00;99.90;;;;;;4932230;29;20062;-73
2023/01/14 02:33:09;;;;;;;131.95;83.40;;;3.90;1.00;;;;;;4944982;29;20054;-73
2023/01/14 02:35:44;;;;;;;127.82;77.30;;;3.90;1.00;;;;;;4945415;29;20055;-73
2023/01/14 02:38:25;;;;;;;131.75;78.78;;;3.90;1.00;;;;;;4937642;29;20106;-72
2023/01/14 02:41:02;;;;;;;138.15;87.10;;;3.90;99.90;;;;;;4944688;29;20055;-72
2023/01/14 02:46:30;;;;;;;155.55;94.45;;;3.80;1.00;;;;;;4937041;29;20063;-73
2023/01/14 02:49:02;;;;;;;134.23;84.20;;;3.80;98.20;;;;;;4953964;29;20150;-72
2023/01/14 02:51:32;;;;;;;145.90;90.05;;;3.70;1.00;;;;;;4943159;29;20154;-72
2023/01/14 02:53:59;;;;;;;138.93;87.00;;;3.80;99.90;;;;;;4953647;29;20070;-73
2023/01/14 02:56:30;;;;;;;140.00;84.20;;;3.90;1.00;;;;;;4944208;29;20048;-72
2023/01/14 02:59:11;;;;;;;142.25;86.30;;;3.90;99.90;;;;;;4936323;29;20042;-73
2023/01/14 03:02:04;;;;;;;142.88;88.85;;;4.00;99.90;;;;;;4953930;29;20039;-73
2023/01/14 03:04:57;;;;;;;150.05;90.53;;;4.00;1.00;;;;;;4936689;29;20086;-73
2023/01/14 03:07:31;;;;;;;143.50;88.50;;;4.10;99.90;;;;;;4936561;29;20450;-74
2023/01/14 03:10:05;;;;;;;154.23;91.30;;;4.20;99.90;;;;;;4944157;29;20054;-73
2023/01/14 03:12:41;;;;;;;150.68;94.13;;;4.20;1.00;;;;;;4936123;29;20105;-72
2023/01/14 03:15:18;;;;;;;147.20;92.80;;;4.30;1.00;;;;;;4952289;29;20188;-73
2023/01/14 03:17:52;;;;;;;146.93;87.85;;;4.50;1.00;;;;;;4936212;29;20043;-76
2023/01/14 03:20:23;;;;;;;146.70;86.47;;;4.40;99.90;;;;;;4936644;29;20047;-72
2023/01/14 03:22:52;;;;;;;151.02;87.72;;;4.40;99.90;;;;;;4953702;29;20039;-73
2023/01/14 03:25:25;;;;;;;143.85;90.10;;;4.50;1.00;;;;;;4943700;29;20055;-72
2023/01/14 03:27:59;;;;;;;149.23;91.20;;;4.20;99.90;;;;;;4945475;29;20053;-72
2023/01/14 03:30:32;;;;;;;144.32;88.80;;;4.10;1.00;;;;;;4951748;29;20051;-72
2023/01/14 03:33:06;;;;;;;148.02;91.63;;;4.10;1.00;;;;;;4936593;29;20047;-73
2023/01/14 03:35:36;;;;;;;151.20;92.15;;;4.00;99.90;;;;;;4935920;29;20104;-73
2023/01/14 03:38:08;;;;;;;156.55;92.38;;;4.00;36.00;;;;;;4944393;29;20050;-73
2023/01/14 03:40:38;;;;;;;148.52;91.50;;;3.90;1.00;;;;;;4953112;29;20046;-74
2023/01/14 03:43:14;;;;;;;150.63;90.85;;;3.90;1.00;;;;;;4953286;29;20046;-72
2023/01/14 03:45:45;;;;;;;173.45;106.68;;;4.00;75.20;;;;;;4952875;29;20051;-73
2023/01/14 03:48:14;;;;;;;171.27;102.40;;;4.00;13.90;;;;;;4943592;29;20047;-73
2023/01/14 03:50:51;;;;;;;169.23;102.68;;;3.90;99.90;;;;;;4953200;29;20396;-73
2023/01/14 03:53:25;;;;;;;178.23;111.93;;;3.90;99.90;;;;;;4953762;29;20491;-73
2023/01/14 03:55:59;;;;;;;153.05;96.38;;;3.90;99.90;;;;;;4953105;29;20614;-73
2023/01/14 03:58:38;;;;;;;164.85;99.95;;;4.00;99.90;;;;;;4953212;29;20466;-73
2023/01/14 04:01:10;;;;;;;152.00;93.53;;;4.00;1.00;;;;;;4953112;29;20043;-72
2023/01/14 04:03:40;;;;;;;141.80;91.00;;;4.00;1.00;;;;;;4935587;29;20502;-72
2023/01/14 04:06:08;;;;;;;131.13;85.63;;;4.00;1.00;;;;;;4953074;29;21066;-73
2023/01/14 04:08:36;;;;;;;142.93;89.43;;;4.00;99.90;;;;;;4943100;29;20099;-72
2023/01/14 04:11:04;;;;;;;142.00;89.85;;;4.00;99.90;;;;;;4952743;29;20062;-73
2023/01/14 04:16:16;;;;;;;152.93;97.90;;;4.00;99.90;;;;;;4953092;29;20050;-73
2023/01/14 04:18:45;;;;;;;171.18;102.40;;;4.10;1.00;;;;;;4952565;29;20156;-73
2023/01/14 04:21:12;;;;;;;162.40;99.55;;;4.10;1.00;;;;;;4952021;29;20046;-72
2023/01/14 04:23:40;;;;;;;146.85;92.45;;;4.10;1.00;;;;;;4953506;29;20130;-71
2023/01/14 04:26:07;;;;;;;140.68;89.93;;;4.20;99.90;;;;;;4952174;29;20047;-73
2023/01/14 04:28:34;;;;;;;148.52;93.80;;;4.20;1.00;;;;;;4952607;29;20487;-73
2023/01/14 04:31:02;;;;;;;149.02;91.53;;;4.30;1.00;;;;;;4951916;29;20415;-72
2023/01/14 04:33:29;;;;;;;145.20;90.95;;;4.30;1.00;;;;;;4952711;29;20046;-73
2023/01/14 04:35:58;;;;;;;141.85;89.80;;;4.30;1.00;;;;;;4951395;29;20043;-72
2023/01/14 04:38:26;;;;;;;152.13;94.97;;;4.20;1.00;;;;;;4952244;28;20046;-74
2023/01/14 04:40:54;;;;;;;146.32;91.32;;;4.30;1.00;;;;;;4951144;29;20067;-72
2023/01/14 04:43:21;;;;;;;150.68;93.35;;;4.40;1.00;;;;;;4952488;29;20049;-74
2023/01/14 04:45:50;;;;;;;154.77;93.78;;;4.40;1.00;;;;;;4951520;29;20082;-72
2023/01/14 04:48:18;;;;;;;154.82;94.03;;;4.40;1.00;;;;;;4951869;29;20043;-72
2023/01/14 04:50:46;;;;;;;143.80;91.00;;;4.40;99.90;;;;;;4951445;29;20058;-73
2023/01/14 04:53:17;;;;;;;135.50;86.60;;;4.40;1.00;;;;;;4952473;29;20043;-72
2023/01/14 04:55:46;;;;;;;139.25;88.68;;;4.40;99.90;;;;;;4952258;29;20042;-72
2023/01/14 04:58:15;;;;;;;137.82;87.68;;;4.50;1.00;;;;;;4952025;29;20047;-73
2023/01/14 05:00:44;;;;;;;107.13;68.25;;;4.50;44.00;;;;;;4934071;29;20056;-73
2023/01/14 05:03:12;;;;;;;109.88;68.18;;;4.60;99.90;;;;;;4951736;29;20137;-72
2023/01/14 05:05:41;;;;;;;114.32;70.80;;;4.60;99.90;;;;;;4935316;29;20047;-73
2023/01/14 05:08:10;;;;;;;122.70;75.60;;;4.60;1.00;;;;;;4952074;29;20092;-72
2023/01/14 05:10:39;;;;;;;127.15;77.75;;;4.60;1.00;;;;;;4951505;29;20035;-72
2023/01/14 05:13:07;;;;;;;113.32;71.80;;;4.60;1.00;;;;;;4950980;29;20043;-73
2023/01/14 05:15:37;;;;;;;122.93;73.90;;;4.50;99.90;;;;;;4951796;29;20066;-73
2023/01/14 05:18:05;;;;;;;138.48;85.18;;;4.50;99.90;;;;;;4951116;29;20505;-73
2023/01/14 05:20:32;;;;;;;141.85;87.55;;;4.50;99.90;;;;;;4950944;29;20047;-72
2023/01/14 05:23:01;;;;;;;145.82;91.43;;;4.40;43.50;;;;;;4951616;29;20502;-73
2023/01/14 05:25:30;;;;;;;179.95;107.95;;;4.30;99.90;;;;;;4951084;29;20070;-72
2023/01/14 05:28:01;;;;;;;191.73;113.35;;;4.30;99.90;;;;;;4951413;29;20089;-73
2023/01/14 05:30:28;;;;;;;211.95;121.25;;;4.30;1.00;;;;;;4933334;29;20050;-72
2023/01/14 05:32:56;;;;;;;230.10;121.15;;;4.20;99.90;;;;;;4951324;29;20118;-73
2023/01/14 05:35:24;;;;;;;232.15;122.88;;;4.30;99.90;;;;;;4950658;29;20048;-72
2023/01/14 05:37:52;;;;;;;216.55;114.85;;;4.30;99.90;;;;;;4950936;29;20483;-74
2023/01/14 05:40:20;;;;;;;195.68;107.93;;;4.30;1.00;;;;;;4950475;28;20054;-73
2023/01/14 05:45:41;;;;;;;206.70;113.57;;;4.40;44.00;;;;;;4949522;28;20035;-73
2023/01/14 05:48:09;;;;;;;213.27;118.35;;;4.50;99.90;;;;;;4940120;29;20046;-72
2023/01/14 05:50:37;;;;;;;232.05;122.30;;;4.60;99.90;;;;;;4950238;29;20039;-75
2023/01/14 05:53:05;;;;;;;228.13;128.25;;;4.50;99.90;;;;;;4950272;29;20125;-73
2023/01/14 05:55:32;;;;;;;226.38;122.45;;;4.50;99.90;;;;;;4950790;28;20071;-73
2023/01/14 05:58:01;;;;;;;224.02;119.53;;;4.60;99.90;;;;;;4950735;29;20436;-74
2023/01/14 06:08:48;;;;;;;203.43;112.55;;;4.70;99.90;;;;;;4950991;29;20047;-72
2023/01/14 06:11:16;;;;;;;206.00;110.45;;;4.70;99.90;;;;;;4950006;29;20057;-73
2023/01/14 06:13:45;;;;;;;211.48;116.63;;;4.80;99.90;;;;;;4932562;29;20040;-73
2023/01/14 06:16:12;;;;;;;211.32;117.47;;;4.80;99.90;;;;;;4952016;29;20149;-73
2023/01/14 06:18:42;;;;;;;217.82;116.85;;;4.80;99.90;;;;;;4934022;29;20043;-73
2023/01/14 06:21:12;;;;;;;213.57;118.35;;;4.80;99.90;;;;;;4950525;29;20094;-73
2023/01/14 06:23:39;;;;;;;211.60;116.03;;;4.70;99.90;;;;;;4950990;29;20042;-73
2023/01/14 06:26:10;;;;;;;218.55;121.57;;;4.60;99.90;;;;;;4941225;29;20515;-73
2023/01/14 06:28:37;;;;;;;214.98;120.22;;;4.60;99.90;;;;;;4951074;29;20047;-72
2023/01/14 06:31:10;;;;;;;221.60;121.10;;;4.60;99.90;;;;;;4950540;29;20051;-72
2023/01/14 06:33:38;;;;;;;209.77;120.18;;;4.60;99.90;;;;;;4950564;29;20039;-73
2023/01/14 06:36:08;;;;;;;223.30;124.25;;;4.60;99.90;;;;;;4951769;29;20059;-73
2023/01/14 06:38:35;;;;;;;251.50;143.43;;;4.70;99.90;;;;;;4941010;29;20055;-73
2023/01/14 06:41:05;;;;;;;223.32;129.30;;;4.70;99.90;;;;;;4933075;29;20039;-73
2023/01/14 06:43:33;;;;;;;219.38;121.72;;;4.70;99.90;;;;;;4950771;29;20075;-72
2023/01/14 06:46:00;;;;;;;200.93;117.60;;;4.80;99.90;;;;;;4923704;29;20054;-73
2023/01/14 06:48:28;;;;;;;207.48;117.03;;;4.80;99.90;;;;;;4949913;29;20143;-72
2023/01/14 06:50:56;;;;;;;204.45;117.43;;;4.80;99.90;;;;;;4950090;29;20114;-72
2023/01/14 06:53:25;;;;;;;214.00;121.78;;;4.90;99.90;;;;;;4951965;29;20062;-73
2023/01/14 06:55:52;;;;;;;216.07;123.18;;;5.00;99.90;;;;;;4954440;29;20052;-73
2023/01/14 06:58:20;;;;;;;216.55;124.53;;;5.00;99.90;;;;;;4953209;29;20073;-73
2023/01/14 07:00:48;;;;;;;219.50;130.57;;;5.00;99.90;;;;;;4951657;29;20039;-73
2023/01/14 07:03:15;;;;;;;211.27;123.22;;;5.00;99.90;;;;;;4953508;28;20078;-73
2023/01/14 07:05:42;;;;;;;211.48;127.75;;;5.00;99.90;;;;;;4959245;29;20524;-72
2023/01/14 07:08:10;;;;;;;218.13;125.15;;;5.00;99.90;;;;;;4936839;29;20048;-73
2023/01/14 07:10:39;;;;;;;214.57;127.40;;;5.10;99.90;;;;;;4957566;29;20039;-73
2023/01/14 07:13:06;;;;;;;223.13;131.73;;;5.10;99.90;;;;;;4953978;29;20050;-72
2023/01/14 07:15:33;;;;;;;237.68;138.43;;;5.10;99.90;;;;;;4954275;29;20051;-74
2023/01/14 07:18:01;;;;;;;393.05;243.82;;;5.00;99.90;;;;;;4954143;29;20051;-72
2023/01/14 07:20:28;;;;;;;358.20;230.95;;;4.90;99.90;;;;;;4953391;29;20048;-73
2023/01/14 07:22:56;;;;;;;323.90;203.40;;;4.80;99.90;;;;;;4953426;28;20042;-74
2023/01/14 07:25:24;;;;;;;301.35;187.50;;;4.70;99.90;;;;;;4953266;29;20043;-72
2023/01/14 07:27:54;;;;;;;271.40;159.48;;;4.80;99.90;;;;;;4953425;29;20047;-74
2023/01/14 07:30:21;;;;;;;278.20;166.93;;;4.80;99.90;;;;;;4952380;29;20047;-74
2023/01/14 07:32:49;;;;;;;279.58;168.45;;;4.80;99.90;;;;;;4953600;29;20047;-73
2023/01/14 07:35:17;;;;;;;315.23;194.20;;;4.80;99.90;;;;;;4953455;29;20513;-74
2023/01/14 07:37:44;;;;;;;310.58;191.98;;;4.80;99.90;;;;;;4953594;29;20075;-73
2023/01/14 07:40:13;;;;;;;299.90;189.75;;;4.80;99.90;;;;;;4953075;29;20043;-73
2023/01/14 07:42:40;;;;;;;296.05;181.82;;;4.80;99.90;;;;;;4952245;29;20047;-73
2023/01/14 07:45:10;;;;;;;310.35;193.98;;;4.70;99.90;;;;;;4952530;29;20032;-75
2023/01/14 07:47:38;;;;;;;309.88;196.82;;;4.70;99.90;;;;;;4953238;29;20230;-72
2023/01/14 07:50:06;;;;;;;303.85;195.07;;;4.80;99.90;;;;;;4952998;29;20513;-73
2023/01/14 07:52:33;;;;;;;372.38;238.07;;;4.80;99.90;;;;;;4953342;29;20348;-74
2023/01/14 07:55:01;;;;;;;348.15;219.70;;;4.80;99.90;;;;;;4955139;29;20480;-73
2023/01/14 07:57:28;;;;;;;266.88;167.25;;;4.90;99.90;;;;;;4952702;29;20066;-73
2023/01/14 07:59:56;;;;;;;267.02;166.13;;;4.90;99.90;;;;;;4952419;29;20031;-74
2023/01/14 08:02:24;;;;;;;249.38;153.93;;;4.90;99.90;;;;;;4951518;28;20054;-72
2023/01/14 08:04:52;;;;;;;239.98;150.43;;;4.90;99.90;;;;;;4952548;28;20122;-73
2023/01/14 08:07:19;;;;;;;247.25;149.73;;;4.90;99.90;;;;;;4951996;29;20498;-72
2023/01/14 08:09:47;;;;;;;237.02;145.55;;;5.00;99.90;;;;;;4952464;29;20050;-73
2023/01/14 08:12:14;;;;;;;230.35;144.02;;;5.00;99.90;;;;;;4951851;29;20047;-73
2023/01/14 08:14:41;;;;;;;232.38;145.20;;;5.10;99.90;;;;;;4951511;28;20050;-72
2023/01/14 08:17:09;;;;;;;237.02;149.68;;;5.00;99.90;;;;;;4953181;29;20046;-73
2023/01/14 08:19:38;;;;;;;266.10;162.65;;;5.10;99.90;;;;;;4953902;29;20053;-73
2023/01/14 08:22:05;;;;;;;255.50;160.93;;;5.10;99.90;;;;;;4956926;29;20047;-72
2023/01/14 08:24:33;;;;;;;253.57;156.75;;;5.10;99.90;;;;;;4960379;29;20066;-74
2023/01/14 08:27:00;;;;;;;328.55;218.10;;;5.10;99.90;;;;;;4929766;29;20067;-73
2023/01/14 08:29:27;;;;;;;372.50;239.38;;;5.10;99.90;;;;;;4954712;29;20046;-73
2023/01/14 08:31:55;;;;;;;313.73;204.38;;;5.10;99.90;;;;;;4950769;29;20046;-72
2023/01/14 08:34:23;;;;;;;327.75;207.48;;;5.00;99.90;;;;;;4952155;29;20043;-72
2023/01/14 08:36:52;;;;;;;347.42;217.18;;;5.00;99.90;;;;;;4953278;29;20102;-73
2023/01/14 08:39:19;;;;;;;358.90;226.15;;;4.90;99.90;;;;;;4955380;29;20048;-74
2023/01/14 08:41:47;;;;;;;357.67;230.32;;;4.90;99.90;;;;;;4957484;29;20491;-72
2023/01/14 08:44:15;;;;;;;354.90;236.85;;;5.00;99.90;;;;;;4958464;29;20043;-74
2023/01/14 08:46:43;;;;;;;320.90;213.43;;;4.90;99.90;;;;;;4955129;29;20108;-74
2023/01/14 08:49:11;;;;;;;318.30;216.13;;;5.00;99.90;;;;;;4953456;29;20130;-74
2023/01/14 08:51:39;;;;;;;335.20;233.68;;;5.00;99.90;;;;;;4950776;28;20078;-72
2023/01/14 08:54:08;;;;;;;339.02;233.57;;;5.10;99.90;;;;;;4933779;29;20105;-73
2023/01/14 08:56:35;;;;;;;313.85;212.80;;;5.10;99.90;;;;;;4952558;29;20130;-73
2023/01/14 08:59:03;;;;;;;288.40;190.60;;;5.30;99.90;;;;;;4951170;29;20045;-73
2023/01/14 09:01:31;;;;;;;286.00;187.13;;;5.40;99.90;;;;;;4951453;28;20077;-74
2023/01/14 09:04:00;;;;;;;277.75;183.48;;;5.40;99.90;;;;;;4952274;29;20051;-73
2023/01/14 09:06:28;;;;;;;272.67;183.95;;;5.50;99.90;;;;;;4952186;29;20039;-74
2023/01/14 09:17:17;;;;;;;234.02;151.80;;;6.00;99.90;;;;;;4952028;29;20040;-74
2023/01/14 09:19:48;;;;;;;257.65;167.60;;;6.10;99.90;;;;;;4952642;29;20047;-73
2023/01/14 09:22:18;;;;;;;244.23;160.73;;;6.20;99.90;;;;;;4953387;29;20130;-73
2023/01/14 09:24:46;;;;;;;247.88;159.52;;;6.20;99.90;;;;;;4952112;28;20039;-74
2023/01/14 09:27:15;;;;;;;254.40;164.98;;;6.20;99.90;;;;;;4951853;29;20086;-75
2023/01/14 09:29:42;;;;;;;245.07;162.52;;;6.40;99.90;;;;;;4952691;29;20067;-73
2023/01/14 09:32:11;;;;;;;241.70;158.05;;;6.60;99.90;;;;;;4951487;29;20055;-73
2023/01/14 09:34:41;;;;;;;233.35;152.27;;;6.80;99.90;;;;;;4951941;29;20039;-73
2023/01/14 09:37:09;;;;;;;227.32;149.48;;;7.00;99.90;;;;;;4950733;29;20041;-73
2023/01/14 09:39:37;;;;;;;231.90;147.43;;;7.10;99.90;;;;;;4951609;29;20035;-75
2023/01/14 09:42:08;;;;;;;248.50;153.13;;;7.40;99.90;;;;;;4934587;29;20051;-73
2023/01/14 09:44:37;;;;;;;238.65;150.05;;;7.50;99.90;;;;;;4952900;29;20082;-72
2023/01/14 09:47:04;;;;;;;238.50;142.55;;;7.70;99.90;;;;;;4952004;29;20491;-74
2023/01/14 09:49:32;;;;;;;225.52;134.68;;;7.70;99.90;;;;;;4953659;29;20051;-74
2023/01/14 09:52:27;;;;;;;222.73;136.15;;;7.70;99.90;;;;;;4953311;28;20050;-73
2023/01/14 09:55:05;;;;;;;222.90;132.77;;;7.90;99.90;;;;;;4952848;29;20495;-73
2023/01/14 09:57:43;;;;;;;204.95;125.82;;;7.90;99.90;;;;;;4951253;29;20035;-73
2023/01/14 10:00:31;;;;;;;212.10;125.40;;;8.10;99.90;;;;;;4951249;28;20050;-72
2023/01/14 10:03:19;;;;;;;201.98;120.70;;;8.20;1.00;;;;;;4950824;28;20062;-73
2023/01/14 10:05:53;;;;;;;204.27;120.88;;;8.50;38.70;;;;;;4958133;29;20053;-72
2023/01/14 10:08:22;;;;;;;178.00;109.97;;;8.70;1.00;;;;;;4964667;29;20043;-73
2023/01/14 10:10:51;;;;;;;170.10;101.07;;;8.80;1.00;;;;;;4967627;29;20049;-73
2023/01/14 10:13:23;;;;;;;167.05;101.05;;;8.70;1.00;;;;;;4958564;29;20134;-73
2023/01/14 10:15:56;;;;;;;180.88;111.30;;;8.60;99.90;;;;;;4955851;29;20122;-73
2023/01/14 10:18:29;;;;;;;197.25;115.13;;;8.50;1.00;;;;;;4957755;29;20128;-73
2023/01/14 10:20:59;;;;;;;178.95;106.53;;;8.30;1.00;;;;;;4954520;29;20051;-72
2023/01/14 10:23:29;;;;;;;180.88;107.60;;;8.20;1.00;;;;;;4953554;29;20043;-72
2023/01/14 10:25:57;;;;;;;173.52;102.70;;;8.00;1.00;;;;;;4953621;29;20043;-73
2023/01/14 10:28:27;;;;;;;184.25;102.50;;;8.00;1.00;;;;;;4960519;29;20046;-73
2023/01/14 10:30:58;;;;;;;171.40;98.13;;;7.90;53.70;;;;;;4965193;29;20051;-73
2023/01/14 10:33:26;;;;;;;159.80;94.38;;;7.80;99.90;;;;;;4962004;29;20077;-73
2023/01/14 10:35:59;;;;;;;139.60;84.72;;;7.80;1.00;;;;;;4943750;29;20050;-74
2023/01/14 10:38:28;;;;;;;135.35;80.00;;;7.80;99.90;;;;;;4954587;28;20533;-74
2023/01/14 10:40:59;;;;;;;114.18;70.15;;;7.80;1.00;;;;;;4953960;29;20051;-72
2023/01/14 10:43:31;;;;;;;125.60;74.55;;;7.80;99.90;;;;;;4954278;29;20040;-72
2023/01/14 10:46:01;;;;;;;122.65;73.00;;;7.90;1.00;;;;;;4954497;29;20043;-73
2023/01/14 10:48:30;;;;;;;125.40;74.13;;;7.90;1.00;;;;;;4954042;29;20066;-73
2023/01/14 10:51:35;;;;;;;129.02;75.22;;;8.10;1.00;;;;;;4953147;28;20499;-73
2023/01/14 10:54:14;;;;;;;118.13;73.28;;;8.10;1.00;;;;;;4954318;29;20074;-73
2023/01/14 10:56:45;;;;;;;119.10;73.07;;;8.10;29.00;;;;;;4954670;29;20054;-73
2023/01/14 10:59:36;;;;;;;112.93;70.63;;;8.10;99.90;;;;;;4954225;29;20075;-72
2023/01/14 11:02:05;;;;;;;124.63;73.88;;;8.10;1.00;;;;;;4953651;29;20119;-73
2023/01/14 11:04:35;;;;;;;117.72;70.75;;;8.20;1.00;;;;;;4953853;29;20074;-73
2023/01/14 11:07:10;;;;;;;122.85;77.90;;;8.30;1.00;;;;;;4954489;29;20410;-74
2023/01/14 11:09:39;;;;;;;117.95;76.93;;;8.40;1.00;;;;;;4952902;28;20107;-72
2023/01/14 11:12:07;;;;;;;124.68;75.68;;;8.40;1.00;;;;;;4952822;28;20073;-78
2023/01/14 11:14:39;;;;;;;108.38;67.32;;;8.60;1.00;;;;;;4952429;28;20035;-73
2023/01/14 11:20:24;;;;;;;106.20;67.22;;;8.70;46.50;;;;;;5073074;27;20739;-73
2023/01/14 11:23:01;;;;;;;108.30;66.05;;;9.00;99.90;;;;;;5067781;28;20099;-73
2023/01/14 11:25:30;;;;;;;106.00;64.25;;;9.00;99.90;;;;;;5076108;28;20047;-72
2023/01/14 11:28:00;;;;;;;103.10;64.72;;;9.00;1.00;;;;;;5073194;28;20063;-73
2023/01/14 11:30:28;;;;;;;93.43;58.25;;;9.10;99.90;;;;;;5074021;28;20045;-72
2023/01/14 11:32:59;;;;;;;88.70;56.13;;;9.10;1.00;;;;;;5073909;28;20044;-71
2023/01/14 11:35:32;;;;;;;86.45;54.58;;;9.30;1.00;;;;;;5074256;28;20037;-72
2023/01/14 11:38:02;;;;;;;81.35;51.63;;;9.50;1.00;;;;;;5072813;28;20259;-73
2023/01/14 11:43:15;;;;;;;74.68;48.05;;;9.60;1.00;;;;;;5076085;28;20139;-73
2023/01/14 11:45:43;;;;;;;75.35;48.13;;;9.50;99.90;;;;;;5077437;28;20044;-73
2023/01/14 11:48:29;;;;;;;71.55;44.17;;;9.60;99.90;;;;;;5075399;28;20055;-73
2023/01/14 11:51:01;;;;;;;66.38;42.70;;;9.50;1.00;;;;;;5076006;28;20043;-73
2023/01/14 11:53:43;;;;;;;70.47;43.38;;;9.40;1.00;;;;;;5075458;28;20050;-73
2023/01/14 11:56:16;;;;;;;65.38;41.63;;;9.40;99.90;;;;;;5074003;28;20051;-73
2023/01/14 11:58:44;;;;;;;87.68;55.65;;;9.30;1.00;;;;;;5072968;28;20048;-73
2023/01/14 12:01:22;;;;;;;69.35;44.20;;;9.30;99.90;;;;;;5073360;28;20046;-72
2023/01/14 12:03:58;;;;;;;77.50;46.58;;;9.30;1.00;;;;;;5071877;28;20065;-71
2023/01/14 12:06:30;;;;;;;70.47;45.88;;;9.40;1.00;;;;;;5073677;28;20047;-72
2023/01/14 12:09:02;;;;;;;81.20;49.00;;;9.50;62.10;;;;;;5075659;28;20164;-71
2023/01/14 12:11:37;;;;;;;81.57;50.97;;;9.40;1.00;;;;;;5074419;28;20037;-73
2023/01/14 12:17:01;;;;;;;80.82;50.75;;;9.60;99.90;;;;;;5073638;28;20128;-72
2023/01/14 12:19:33;;;;;;;81.78;51.50;;;9.60;99.90;;;;;;5075312;28;20527;-73
2023/01/14 12:22:15;;;;;;;77.95;52.53;;;9.70;67.80;;;;;;5075963;28;20114;-71
2023/01/14 12:24:52;;;;;;;77.70;49.90;;;9.70;1.00;;;;;;5074752;28;20090;-72
2023/01/14 12:30:27;;;;;;;79.28;50.45;;;10.00;1.00;;;;;;5068213;28;20083;-72
2023/01/14 12:33:01;;;;;;;76.88;49.45;;;9.90;99.90;;;;;;5057669;28;20437;-72
2023/01/14 12:35:35;;;;;;;78.68;48.90;;;9.90;1.00;;;;;;5061422;28;20102;-71
2023/01/14 12:45:41;;;;;;;69.03;46.58;;;9.90;1.00;;;;;;5057858;28;20040;-72
2023/01/14 12:46:34;;;;;;;62.63;42.38;;;9.90;1.00;;;;;;5056688;28;20093;-74
2023/01/14 12:49:01;;;;;;;65.10;42.80;;;9.80;99.90;;;;;;5054814;28;20037;-73
2023/01/14 12:51:35;;;;;;;67.20;45.03;;;9.90;99.90;;;;;;5060475;28;20040;-72
2023/01/14 12:54:06;;;;;;;75.20;48.58;;;10.00;1.00;;;;;;5061081;28;20040;-73
2023/01/14 12:56:37;;;;;;;70.45;45.00;;;10.20;1.00;;;;;;5059375;28;20037;-73
2023/01/14 12:59:08;;;;;;;61.80;40.88;;;10.30;1.00;;;;;;5058774;28;20136;-73
2023/01/14 13:01:41;;;;;;;68.68;42.00;;;10.40;99.90;;;;;;5058129;28;20047;-73
2023/01/14 13:04:19;;;;;;;61.15;41.90;;;10.50;1.00;;;;;;5060126;28;20032;-73
2023/01/14 13:06:52;;;;;;;60.67;41.42;;;10.60;1.00;;;;;;5057153;28;20041;-72
2023/01/14 13:09:24;;;;;;;66.05;41.35;;;10.70;1.00;;;;;;5056388;28;20033;-73
2023/01/14 13:11:55;;;;;;;58.70;39.65;;;10.70;1.00;;;;;;5060656;28;20072;-73
2023/01/14 13:14:34;;;;;;;63.85;40.42;;;10.60;99.90;;;;;;5062059;28;20051;-71
2023/01/14 13:17:05;;;;;;;61.03;40.25;;;10.30;99.90;;;;;;5075076;28;20131;-72
2023/01/14 13:19:37;;;;;;;54.92;35.10;;;10.10;1.00;;;;;;5077633;28;20063;-72
2023/01/14 13:22:05;;;;;;;59.58;36.80;;;9.80;1.00;;;;;;5067901;28;20056;-73
2023/01/14 13:25:02;;;;;;;60.88;38.17;;;9.60;99.90;;;;;;5061398;28;20040;-72
2023/01/14 13:27:34;;;;;;;56.63;35.50;;;9.50;94.90;;;;;;5059935;28;20037;-72